Time;durP1;ratioP1;P1;durP2;ratioP2;P2;SDS_P1;SDS_P2;PMS_P1;PMS_P2;Temp;Humidity;BMP_temperature;BMP_pressure;BME280_temperature;BME280_humidity;BME280_pressure;Samples;Min_cycle;Max_cycle;Signal;HPM_P1;HPM_P2
2022/01/21 00:01:25;;;;;;;12.77;2.47;;;2.90;99.90;;;;;;5076218;28;20074;-63
2022/01/21 00:03:52;;;;;;;11.25;2.88;;;;;;;;;;5040852;28;20119;-63
2022/01/21 00:06:18;;;;;;;12.35;2.75;;;2.90;99.90;;;;;;5075089;28;20040;-62
2022/01/21 00:08:45;;;;;;;10.05;1.75;;;3.10;99.90;;;;;;5074749;28;20520;-62
2022/01/21 00:11:12;;;;;;;13.75;2.85;;;3.30;99.90;;;;;;5075148;28;20398;-62
2022/01/21 00:13:38;;;;;;;14.73;2.33;;;3.20;99.90;;;;;;5058193;28;20448;-63
2022/01/21 00:16:09;;;;;;;11.00;2.60;;;3.10;99.90;;;;;;5075007;28;20094;-63
2022/01/21 00:18:38;;;;;;;13.43;2.38;;;3.30;99.90;;;;;;5076323;28;20048;-62
2022/01/21 00:32:04;;;;;;;8.68;2.33;;;2.90;99.90;;;;;;5076166;28;20052;-63
2022/01/21 00:34:30;;;;;;;13.20;2.95;;;2.60;99.90;;;;;;5074623;28;20402;-63
2022/01/21 00:36:55;;;;;;;9.07;2.30;;;2.80;99.90;;;;;;5074503;28;20040;-63
2022/01/21 00:39:24;;;;;;;14.30;3.55;;;2.80;99.90;;;;;;5057762;28;20052;-63
2022/01/21 00:44:35;;;;;;;7.87;1.93;;;2.50;99.90;;;;;;5057799;28;20044;-63
2022/01/21 00:47:02;;;;;;;11.38;2.58;;;2.50;99.90;;;;;;5074756;28;20045;-63
2022/01/21 00:49:28;;;;;;;7.75;2.30;;;2.40;99.90;;;;;;5074406;28;20076;-63
2022/01/21 00:51:54;;;;;;;8.52;2.17;;;2.50;99.90;;;;;;5045636;28;20033;-62
2022/01/21 00:54:19;;;;;;;8.85;2.00;;;2.40;99.90;;;;;;5056132;28;20043;-63
2022/01/21 00:56:45;;;;;;;11.32;2.03;;;2.40;99.90;;;;;;5037797;28;20045;-63
2022/01/21 00:59:11;;;;;;;12.38;2.15;;;2.50;99.90;;;;;;5054547;28;20041;-63
2022/01/21 01:01:37;;;;;;;17.45;3.03;;;;;;;;;;5055482;28;20033;-63
2022/01/21 01:04:03;;;;;;;7.82;2.83;;;2.50;99.90;;;;;;5054466;28;20409;-63
2022/01/21 01:06:29;;;;;;;12.05;2.45;;;2.60;99.90;;;;;;5037062;28;20171;-63
2022/01/21 01:08:55;;;;;;;11.93;2.38;;;;;;;;;;5037625;28;20508;-63
2022/01/21 01:11:53;;;;;;;10.05;2.95;;;2.40;99.90;;;;;;5037017;28;20154;-63
2022/01/21 01:20:00;;;;;;;11.00;2.75;;;2.30;99.90;;;;;;5037608;28;20045;-63
2022/01/21 01:22:39;;;;;;;12.40;2.08;;;2.50;99.90;;;;;;5037538;28;20453;-63
2022/01/21 01:27:50;;;;;;;9.13;2.03;;;2.60;99.90;;;;;;5037267;28;20049;-63
2022/01/21 01:30:17;;;;;;;13.80;2.33;;;2.40;99.90;;;;;;5037252;28;20479;-63
2022/01/21 01:32:45;;;;;;;13.07;2.13;;;2.50;99.90;;;;;;5054229;28;20449;-63
2022/01/21 01:35:13;;;;;;;9.05;2.83;;;2.60;99.90;;;;;;5053898;28;20071;-63
2022/01/21 01:43:04;;;;;;;15.05;2.30;;;2.70;99.90;;;;;;5036990;28;20044;-63
2022/01/21 01:49:27;;;;;;;10.13;1.98;;;2.90;99.90;;;;;;5054444;28;20507;-62
2022/01/21 01:51:05;;;;;;;12.38;1.92;;;2.70;99.90;;;;;;5038981;28;20540;-63
2022/01/21 01:53:39;;;;;;;9.38;1.92;;;2.80;99.90;;;;;;5053961;28;20117;-63
2022/01/21 01:56:08;;;;;;;11.00;2.05;;;2.80;99.90;;;;;;5036806;28;20068;-63
2022/01/21 01:58:36;;;;;;;18.33;2.60;;;2.90;99.90;;;;;;5055536;28;20099;-63
2022/01/21 02:01:03;;;;;;;10.30;2.08;;;2.80;99.90;;;;;;5053248;28;20406;-63
2022/01/21 02:03:31;;;;;;;17.88;3.20;;;2.70;99.90;;;;;;5054102;28;20424;-63
2022/01/21 02:05:57;;;;;;;10.02;2.08;;;;;;;;;;5070811;28;20052;-62
2022/01/21 02:08:23;;;;;;;6.93;1.80;;;;;;;;;;5053068;28;20033;-64
2022/01/21 02:10:48;;;;;;;7.03;1.90;;;2.70;99.90;;;;;;5053374;28;20053;-63
2022/01/21 02:16:40;;;;;;;9.68;2.30;;;2.50;99.90;;;;;;5048264;28;20124;-63
2022/01/21 02:21:48;;;;;;;9.05;1.60;;;;;;;;;;5056960;28;20045;-63
2022/01/21 02:24:28;;;;;;;13.18;1.80;;;2.60;99.90;;;;;;5058184;28;20454;-63
2022/01/21 02:26:54;;;;;;;8.85;2.17;;;;;;;;;;5056914;28;20073;-63
2022/01/21 02:29:31;;;;;;;7.35;1.80;;;2.40;99.90;;;;;;5058773;28;20033;-63
2022/01/21 02:31:58;;;;;;;10.30;1.88;;;2.70;99.90;;;;;;5073874;28;20045;-63
2022/01/21 02:34:24;;;;;;;7.45;2.03;;;2.50;99.90;;;;;;5057029;28;20124;-62
2022/01/21 02:36:50;;;;;;;12.50;1.73;;;2.40;99.90;;;;;;5074224;28;20037;-63
2022/01/21 02:39:16;;;;;;;5.50;1.73;;;;;;;;;;5073750;28;20048;-63
2022/01/21 02:41:42;;;;;;;7.47;1.75;;;;;;;;;;5056927;28;20052;-63
2022/01/21 02:44:13;;;;;;;8.25;2.25;;;2.30;99.90;;;;;;5057945;28;20045;-63
2022/01/21 02:46:41;;;;;;;7.45;1.77;;;2.60;99.90;;;;;;5056442;28;20045;-63
2022/01/21 02:49:07;;;;;;;5.43;1.70;;;2.50;99.90;;;;;;5058333;28;20044;-63
2022/01/21 02:51:33;;;;;;;12.57;1.85;;;;;;;;;;5050249;28;20387;-63
2022/01/21 02:54:05;;;;;;;8.57;1.63;;;2.40;99.90;;;;;;5039517;28;20041;-63
2022/01/21 02:56:36;;;;;;;8.10;2.15;;;2.60;99.90;;;;;;5056501;28;20045;-62
2022/01/21 02:59:03;;;;;;;7.97;1.63;;;2.40;99.90;;;;;;5057896;28;20390;-62
2022/01/21 03:01:32;;;;;;;9.73;2.13;;;2.30;99.90;;;;;;5057315;28;20394;-63
2022/01/21 03:03:58;;;;;;;6.13;1.92;;;;;;;;;;5057047;28;20037;-63
2022/01/21 03:06:24;;;;;;;7.25;1.73;;;2.30;99.90;;;;;;5047236;28;20047;-63
2022/01/21 03:08:54;;;;;;;6.82;1.75;;;2.10;99.90;;;;;;5059872;28;20036;-62
2022/01/21 03:11:21;;;;;;;9.57;2.22;;;2.10;99.90;;;;;;5060431;28;20052;-63
2022/01/21 03:13:47;;;;;;;8.40;2.00;;;2.20;99.90;;;;;;5059850;28;20044;-63
2022/01/21 03:16:13;;;;;;;5.47;1.90;;;;;;;;;;5076684;28;20044;-63
2022/01/21 03:18:39;;;;;;;9.98;2.25;;;2.20;99.90;;;;;;5059610;28;20048;-63
2022/01/21 03:21:05;;;;;;;11.38;1.92;;;2.20;99.90;;;;;;5059734;28;20051;-63
2022/01/21 03:23:31;;;;;;;7.13;1.80;;;;;;;;;;5059004;28;20036;-63
2022/01/21 03:25:57;;;;;;;13.63;2.28;;;2.20;99.90;;;;;;5059069;28;20051;-64
2022/01/21 03:28:23;;;;;;;10.55;1.95;;;2.30;99.90;;;;;;5058829;28;20045;-64
2022/01/21 03:30:51;;;;;;;7.15;1.80;;;2.40;99.90;;;;;;5059703;28;20044;-63
2022/01/21 03:33:17;;;;;;;7.05;2.17;;;;;;;;;;5077498;28;20127;-62
2022/01/21 03:35:43;;;;;;;6.28;1.55;;;2.20;99.90;;;;;;5077954;28;20059;-63
2022/01/21 03:38:08;;;;;;;8.32;1.40;;;2.10;99.90;;;;;;5043935;28;20482;-63
2022/01/21 03:40:34;;;;;;;10.93;2.10;;;2.10;99.90;;;;;;5059181;28;20036;-63
2022/01/21 03:43:00;;;;;;;7.90;2.28;;;;;;;;;;5059510;28;20044;-63
2022/01/21 03:45:26;;;;;;;4.55;1.77;;;2.00;99.90;;;;;;5059093;28;20120;-63
2022/01/21 03:47:52;;;;;;;5.57;2.20;;;;;;;;;;5059649;28;20119;-63
2022/01/21 03:50:23;;;;;;;8.43;1.80;;;2.10;99.90;;;;;;5059083;28;20047;-63
2022/01/21 03:52:49;;;;;;;11.38;1.88;;;2.10;99.90;;;;;;5039566;28;20075;-63
2022/01/21 03:55:14;;;;;;;7.28;1.73;;;2.00;99.90;;;;;;5038500;28;20061;-64
2022/01/21 03:57:40;;;;;;;5.75;1.73;;;2.10;99.90;;;;;;5056704;28;20041;-63
2022/01/21 04:00:09;;;;;;;7.78;1.90;;;2.10;99.90;;;;;;5056343;28;20051;-63
2022/01/21 04:02:34;;;;;;;9.15;2.10;;;2.00;99.90;;;;;;5038118;28;20037;-63
2022/01/21 04:05:00;;;;;;;15.25;2.10;;;2.00;99.90;;;;;;5037992;28;20505;-63
2022/01/21 04:07:25;;;;;;;12.88;2.00;;;1.90;99.90;;;;;;5037754;28;20040;-63
2022/01/21 04:09:51;;;;;;;5.88;2.20;;;1.90;99.90;;;;;;5038162;28;20045;-63
2022/01/21 04:12:16;;;;;;;7.78;2.25;;;1.80;99.90;;;;;;5054485;28;20060;-63
2022/01/21 04:14:42;;;;;;;5.47;1.77;;;1.60;99.90;;;;;;5037528;28;20036;-63
2022/01/21 04:17:08;;;;;;;9.43;2.15;;;;;;;;;;5055440;28;20174;-63
2022/01/21 04:19:34;;;;;;;10.18;2.33;;;;;;;;;;5055723;28;20045;-63
2022/01/21 04:22:00;;;;;;;9.65;2.30;;;1.80;99.90;;;;;;5037498;28;20041;-63
2022/01/21 04:24:25;;;;;;;8.45;1.80;;;1.80;99.90;;;;;;5037636;28;20040;-63
2022/01/21 04:26:51;;;;;;;6.88;1.48;;;1.80;99.90;;;;;;5054264;28;20075;-63
2022/01/21 04:29:17;;;;;;;9.10;1.95;;;1.80;99.90;;;;;;5037782;28;20044;-63
2022/01/21 04:31:42;;;;;;;8.02;1.88;;;2.20;99.90;;;;;;5037520;28;20048;-63
2022/01/21 04:34:09;;;;;;;5.68;1.67;;;;;;;;;;5055898;28;20112;-63
2022/01/21 04:36:35;;;;;;;7.38;2.03;;;2.00;99.90;;;;;;5037198;28;20040;-63
2022/01/21 04:39:03;;;;;;;8.23;1.38;;;2.10;99.90;;;;;;5037269;28;20041;-63
2022/01/21 04:47:24;;;;;;;8.68;2.15;;;2.00;99.90;;;;;;4993659;28;20046;-63
2022/01/21 04:49:51;;;;;;;11.48;1.65;;;2.10;99.90;;;;;;5042442;28;20414;-63
2022/01/21 04:52:16;;;;;;;9.15;2.47;;;2.00;99.90;;;;;;5071774;28;20041;-63
2022/01/21 04:54:42;;;;;;;8.43;1.90;;;;;;;;;;5075211;28;20032;-63
2022/01/21 04:57:08;;;;;;;8.43;1.85;;;;;;;;;;5057593;28;20078;-64
2022/01/21 04:59:36;;;;;;;12.20;2.15;;;2.20;99.90;;;;;;5057602;28;20036;-63
2022/01/21 05:02:03;;;;;;;9.75;2.17;;;;;;;;;;5057194;28;20048;-63
2022/01/21 05:04:28;;;;;;;12.07;1.77;;;2.10;99.90;;;;;;5057135;28;20044;-63
2022/01/21 05:06:55;;;;;;;9.07;2.10;;;2.10;99.90;;;;;;5057212;28;20039;-63
2022/01/21 05:09:30;;;;;;;6.72;1.80;;;;;;;;;;5058597;28;20041;-63
2022/01/21 05:11:56;;;;;;;5.28;1.70;;;2.00;99.90;;;;;;5077334;28;20131;-63
2022/01/21 05:14:26;;;;;;;12.82;2.42;;;;;;;;;;5061233;28;20043;-63
2022/01/21 05:17:01;;;;;;;14.18;1.98;;;2.00;99.90;;;;;;5060953;28;20071;-64
2022/01/21 05:19:27;;;;;;;15.38;2.78;;;;;;;;;;5077432;28;20040;-63
2022/01/21 05:21:52;;;;;;;17.00;5.50;;;2.10;99.90;;;;;;5061043;28;20089;-64
2022/01/21 05:24:20;;;;;;;9.88;2.00;;;;;;;;;;5095366;28;20040;-65
2022/01/21 05:26:53;;;;;;;12.55;2.20;;;2.20;99.90;;;;;;5059285;28;20067;-64
2022/01/21 05:29:20;;;;;;;9.85;1.80;;;2.40;99.90;;;;;;5065886;28;20542;-65
2022/01/21 05:31:47;;;;;;;9.75;2.38;;;2.30;99.90;;;;;;5084658;28;20037;-64
2022/01/21 05:34:12;;;;;;;6.68;1.67;;;2.30;99.90;;;;;;5056531;28;20044;-64
2022/01/21 05:36:40;;;;;;;11.10;1.83;;;;;;;;;;5036647;28;20052;-65
2022/01/21 05:39:08;;;;;;;11.68;2.15;;;2.30;99.90;;;;;;5056402;28;20115;-64
2022/01/21 05:41:33;;;;;;;11.38;2.08;;;2.40;99.90;;;;;;5074619;28;20410;-64
2022/01/21 05:44:04;;;;;;;8.93;2.20;;;2.30;99.90;;;;;;5074827;28;20036;-64
2022/01/21 05:49:08;;;;;;;10.93;2.35;;;2.40;99.90;;;;;;5074069;28;20046;-64
2022/01/21 05:51:33;;;;;;;8.07;1.55;;;2.50;99.90;;;;;;5086697;28;20119;-64
2022/01/21 05:53:59;;;;;;;13.32;1.83;;;2.40;99.90;;;;;;5077280;28;20044;-64
2022/01/21 05:56:26;;;;;;;12.15;2.10;;;2.60;99.90;;;;;;5056050;28;20082;-65
2022/01/21 05:58:52;;;;;;;6.97;2.03;;;2.70;99.90;;;;;;5073459;28;20048;-65
2022/01/21 06:01:18;;;;;;;11.02;1.95;;;2.60;99.90;;;;;;5089202;28;20127;-65
2022/01/21 06:03:44;;;;;;;3.50;1.67;;;2.60;99.90;;;;;;5073681;28;20479;-65
2022/01/21 06:06:10;;;;;;;9.93;1.80;;;2.50;99.90;;;;;;5057823;28;20036;-65
2022/01/21 06:08:39;;;;;;;12.48;1.80;;;2.60;99.90;;;;;;5089524;28;20111;-65
2022/01/21 06:11:04;;;;;;;9.45;2.25;;;2.30;99.90;;;;;;5094185;28;20143;-64
2022/01/21 06:13:30;;;;;;;8.50;1.92;;;2.40;99.90;;;;;;5076175;28;20118;-65
2022/01/21 06:15:58;;;;;;;16.85;1.98;;;;;;;;;;5091638;28;20068;-65
2022/01/21 06:18:24;;;;;;;8.13;1.52;;;;;;;;;;5057801;28;20048;-65
2022/01/21 06:20:50;;;;;;;11.27;2.35;;;;;;;;;;5048567;28;20464;-64
2022/01/21 06:23:16;;;;;;;12.32;2.50;;;;;;;;;;5048377;28;20073;-65
2022/01/21 06:25:42;;;;;;;9.77;1.90;;;;;;;;;;5049367;28;20044;-64
2022/01/21 06:28:08;;;;;;;13.90;2.78;;;;;;;;;;5053437;28;20080;-64
2022/01/21 06:30:34;;;;;;;7.10;1.85;;;2.60;99.90;;;;;;5060292;28;20044;-64
2022/01/21 06:33:00;;;;;;;10.73;2.15;;;2.50;99.90;;;;;;5076455;28;20290;-64
2022/01/21 06:35:25;;;;;;;11.57;2.08;;;2.60;99.90;;;;;;5076886;28;20040;-64
2022/01/21 06:37:51;;;;;;;10.10;1.95;;;2.60;99.90;;;;;;5077920;28;20055;-64
2022/01/21 06:40:20;;;;;;;15.07;2.08;;;2.70;99.90;;;;;;5078397;28;20047;-64
2022/01/21 06:42:50;;;;;;;7.13;1.63;;;2.50;99.90;;;;;;5076917;28;20044;-63
2022/01/21 06:45:17;;;;;;;9.20;1.80;;;2.70;99.90;;;;;;5096139;28;20047;-64
2022/01/21 06:47:43;;;;;;;9.98;1.85;;;;;;;;;;5077637;28;20048;-64
2022/01/21 06:50:10;;;;;;;7.35;2.17;;;2.50;99.90;;;;;;5078031;28;20066;-64
2022/01/21 06:52:36;;;;;;;7.97;2.10;;;;;;;;;;5039406;28;20036;-64
2022/01/21 06:55:02;;;;;;;5.07;1.88;;;2.50;99.90;;;;;;5055238;28;20040;-64
2022/01/21 06:57:28;;;;;;;9.65;2.00;;;2.50;99.90;;;;;;5037459;28;20053;-64
2022/01/21 06:59:54;;;;;;;9.27;1.83;;;;;;;;;;5064574;28;20115;-64
2022/01/21 07:02:20;;;;;;;8.88;2.13;;;2.50;99.90;;;;;;5091533;28;20047;-65
2022/01/21 07:04:47;;;;;;;13.10;2.38;;;2.40;99.90;;;;;;5070471;28;20393;-64
2022/01/21 07:07:13;;;;;;;9.70;1.50;;;2.30;99.90;;;;;;5051847;28;20067;-64
2022/01/21 07:09:39;;;;;;;7.53;1.70;;;2.40;99.90;;;;;;5052722;28;20056;-64
2022/01/21 07:12:05;;;;;;;6.32;1.83;;;2.30;99.90;;;;;;5065545;28;20049;-64
2022/01/21 07:14:30;;;;;;;8.80;2.20;;;2.30;99.90;;;;;;5077064;28;20039;-64
2022/01/21 07:16:56;;;;;;;8.82;1.60;;;2.30;99.90;;;;;;5080193;28;20455;-65
2022/01/21 07:19:21;;;;;;;8.57;1.52;;;2.20;99.90;;;;;;5066195;28;20438;-65
2022/01/21 07:21:47;;;;;;;4.72;1.38;;;2.20;99.90;;;;;;5086001;28;20501;-64
2022/01/21 07:24:13;;;;;;;12.23;3.50;;;2.30;99.90;;;;;;5055657;28;20044;-65
2022/01/21 07:26:39;;;;;;;7.32;1.92;;;;;;;;;;5050774;28;20494;-65
2022/01/21 07:29:06;;;;;;;5.82;1.90;;;;;;;;;;5067456;28;20036;-65
2022/01/21 07:31:32;;;;;;;7.00;1.70;;;2.40;99.90;;;;;;5067276;28;20037;-65
2022/01/21 07:34:01;;;;;;;11.95;2.78;;;2.40;99.90;;;;;;5055467;28;20097;-65
2022/01/21 07:36:26;;;;;;;11.07;2.28;;;2.40;99.90;;;;;;5051635;28;20495;-65
2022/01/21 07:38:52;;;;;;;10.43;2.20;;;2.50;99.90;;;;;;5062158;28;20043;-65
2022/01/21 07:41:18;;;;;;;7.10;1.95;;;;;;;;;;5052371;28;20045;-65
2022/01/21 07:43:44;;;;;;;10.07;1.83;;;;;;;;;;5065786;28;20051;-65
2022/01/21 07:46:10;;;;;;;12.75;2.50;;;2.60;99.90;;;;;;5075076;28;20393;-64
2022/01/21 07:48:36;;;;;;;7.28;2.28;;;;;;;;;;5062006;28;20055;-65
2022/01/21 07:51:02;;;;;;;7.93;2.40;;;2.60;99.90;;;;;;5064439;28;20040;-65
2022/01/21 07:53:27;;;;;;;13.80;1.88;;;2.70;99.90;;;;;;5083916;28;20034;-66
2022/01/21 07:55:53;;;;;;;15.10;2.90;;;2.70;99.90;;;;;;5063551;28;20051;-65
2022/01/21 07:58:19;;;;;;;12.32;1.70;;;;;;;;;;5063440;28;20506;-65
2022/01/21 08:00:45;;;;;;;12.18;2.20;;;2.80;99.90;;;;;;5052756;28;20049;-64
2022/01/21 08:03:12;;;;;;;19.50;2.47;;;;;;;;;;5066641;28;20090;-65
2022/01/21 08:05:38;;;;;;;7.82;2.88;;;;;;;;;;5059424;28;20494;-67
2022/01/21 08:08:04;;;;;;;9.77;2.25;;;2.60;99.90;;;;;;5059622;28;20131;-67
2022/01/21 08:10:31;;;;;;;6.45;1.55;;;2.70;99.90;;;;;;5055514;28;20134;-67
2022/01/21 08:12:57;;;;;;;10.35;2.28;;;2.60;99.90;;;;;;5055764;28;20079;-67
2022/01/21 08:15:22;;;;;;;10.45;2.15;;;2.60;99.90;;;;;;5083397;28;20041;-67
2022/01/21 08:17:49;;;;;;;10.32;2.65;;;;;;;;;;5062195;28;20585;-66
2022/01/21 08:20:14;;;;;;;5.97;2.22;;;2.50;99.90;;;;;;5062151;28;20036;-67
2022/01/21 08:22:40;;;;;;;9.07;2.35;;;2.70;99.90;;;;;;5079384;28;20147;-67
2022/01/21 08:25:08;;;;;;;7.10;2.58;;;;;;;;;;5074257;28;20100;-67
2022/01/21 08:27:34;;;;;;;11.00;2.50;;;2.80;99.90;;;;;;5078436;28;20052;-67
2022/01/21 08:30:00;;;;;;;6.40;2.25;;;3.30;99.90;;;;;;5078499;28;20040;-67
2022/01/21 08:32:26;;;;;;;5.88;2.05;;;;;;;;;;5082655;28;20094;-67
2022/01/21 08:34:52;;;;;;;6.35;3.05;;;3.50;99.90;;;;;;5068394;28;20512;-67
2022/01/21 08:37:18;;;;;;;12.40;2.40;;;3.70;99.90;;;;;;5074945;28;20040;-67
2022/01/21 08:39:44;;;;;;;8.98;2.15;;;;;;;;;;5077817;28;20036;-67
2022/01/21 08:42:10;;;;;;;12.95;2.45;;;3.80;99.90;;;;;;5062836;28;20032;-67
2022/01/21 08:44:36;;;;;;;13.38;2.67;;;4.20;99.90;;;;;;5081536;28;20085;-67
2022/01/21 08:47:02;;;;;;;10.02;2.53;;;4.80;99.90;;;;;;5083746;28;20510;-66
2022/01/21 08:49:28;;;;;;;8.38;2.28;;;;;;;;;;5082953;28;20507;-65
2022/01/21 08:51:56;;;;;;;8.27;2.83;;;4.80;99.90;;;;;;5057057;28;20076;-66
2022/01/21 08:54:22;;;;;;;9.57;2.33;;;4.80;99.90;;;;;;5073272;28;20036;-66
2022/01/21 08:56:49;;;;;;;15.70;3.00;;;;;;;;;;5063111;28;20398;-66
2022/01/21 08:59:16;;;;;;;10.80;2.92;;;;;;;;;;5065582;28;20040;-67
2022/01/21 09:01:43;;;;;;;9.57;2.30;;;;;;;;;;5076728;28;20049;-67
2022/01/21 09:04:09;;;;;;;6.88;2.35;;;4.80;99.90;;;;;;5070331;28;20049;-66
2022/01/21 09:06:35;;;;;;;12.02;2.30;;;;;;;;;;5068286;28;20063;-66
2022/01/21 09:09:01;;;;;;;11.57;2.28;;;4.50;99.90;;;;;;5072709;28;20488;-65
2022/01/21 09:11:27;;;;;;;13.30;2.40;;;4.50;99.90;;;;;;5037539;28;20106;-66
2022/01/21 09:13:54;;;;;;;10.77;2.28;;;;;;;;;;5060848;28;20053;-66
2022/01/21 09:16:20;;;;;;;12.25;3.08;;;4.40;99.90;;;;;;5069236;28;20045;-66
2022/01/21 09:21:13;;;;;;;12.55;2.20;;;4.30;99.90;;;;;;5056025;28;20052;-68
2022/01/21 09:23:40;;;;;;;11.93;3.80;;;4.40;99.90;;;;;;5049128;28;20049;-68
2022/01/21 09:26:07;;;;;;;9.20;2.50;;;4.30;99.90;;;;;;5050207;28;20159;-68
2022/01/21 09:28:32;;;;;;;13.73;3.63;;;4.40;99.90;;;;;;5049528;28;20495;-68
2022/01/21 09:30:58;;;;;;;9.52;2.63;;;4.50;99.90;;;;;;5066305;28;20095;-68
2022/01/21 09:33:23;;;;;;;14.48;3.42;;;4.30;99.90;;;;;;5052786;28;20076;-69
2022/01/21 09:35:49;;;;;;;10.98;2.75;;;;;;;;;;5051738;28;20127;-68
2022/01/21 09:38:16;;;;;;;15.20;2.55;;;4.40;99.90;;;;;;5052260;28;20498;-68
2022/01/21 09:40:47;;;;;;;8.68;2.55;;;4.50;99.90;;;;;;5032890;28;20090;-69
2022/01/21 09:43:14;;;;;;;13.30;3.15;;;4.70;99.90;;;;;;5059777;28;20076;-69
2022/01/21 09:45:40;;;;;;;10.82;2.90;;;4.70;99.90;;;;;;5061462;28;20432;-69
2022/01/21 09:48:08;;;;;;;14.02;3.78;;;4.50;99.90;;;;;;5065856;28;20048;-67
2022/01/21 09:50:34;;;;;;;13.63;2.78;;;4.70;99.90;;;;;;5058181;28;20056;-68
2022/01/21 09:53:01;;;;;;;11.00;2.85;;;4.70;99.90;;;;;;5055649;28;20037;-68
2022/01/21 09:55:27;;;;;;;15.75;2.92;;;4.90;99.90;;;;;;5055365;28;20032;-68
2022/01/21 09:57:55;;;;;;;11.80;3.35;;;4.80;99.90;;;;;;5069678;28;20197;-69
2022/01/21 10:00:24;;;;;;;16.60;3.10;;;4.90;99.90;;;;;;5051151;28;20048;-68
2022/01/21 10:02:51;;;;;;;13.30;3.10;;;;;;;;;;5067824;28;20101;-68
2022/01/21 10:05:17;;;;;;;13.40;2.70;;;5.20;99.90;;;;;;5080301;28;20056;-68
2022/01/21 10:07:45;;;;;;;12.50;3.53;;;;;;;;;;5061474;28;20037;-68
2022/01/21 10:10:11;;;;;;;13.48;2.70;;;5.00;99.90;;;;;;5060037;28;20043;-68
2022/01/21 10:12:39;;;;;;;12.55;2.85;;;5.10;99.90;;;;;;5073458;28;20048;-69
2022/01/21 10:15:08;;;;;;;12.52;3.30;;;5.20;99.90;;;;;;5067134;28;20446;-68
2022/01/21 10:17:35;;;;;;;14.45;3.05;;;5.10;99.90;;;;;;5050193;28;20527;-67
2022/01/21 10:20:18;;;;;;;16.80;4.18;;;5.40;99.90;;;;;;5054891;28;20487;-67
2022/01/21 10:22:58;;;;;;;17.50;3.00;;;;;;;;;;5055291;28;20049;-67
2022/01/21 10:25:24;;;;;;;20.48;4.15;;;5.40;99.90;;;;;;5049241;28;20386;-67
2022/01/21 10:27:50;;;;;;;25.85;4.15;;;5.50;99.90;;;;;;5050482;28;20049;-67
2022/01/21 10:30:23;;;;;;;23.48;4.18;;;5.50;99.90;;;;;;5049345;28;20051;-67
2022/01/21 10:32:49;;;;;;;13.10;3.63;;;5.50;99.90;;;;;;5055232;28;20090;-67
2022/01/21 10:35:19;;;;;;;11.43;2.78;;;;;;;;;;5048840;28;20037;-67
2022/01/21 10:37:44;;;;;;;19.67;4.88;;;5.60;99.90;;;;;;5063138;28;20040;-68
2022/01/21 10:40:11;;;;;;;24.05;4.55;;;5.60;99.90;;;;;;5071208;28;20051;-68
2022/01/21 10:42:37;;;;;;;17.00;4.18;;;5.50;99.90;;;;;;5066319;28;20888;-68
2022/01/21 10:45:08;;;;;;;19.95;3.42;;;5.60;99.90;;;;;;5057275;28;20033;-67
2022/01/21 10:47:48;;;;;;;16.77;3.45;;;5.80;99.90;;;;;;5051830;28;20052;-68
2022/01/21 10:50:15;;;;;;;16.65;3.13;;;;;;;;;;5050266;28;20056;-69
2022/01/21 10:52:53;;;;;;;21.27;3.20;;;6.00;99.90;;;;;;5064057;28;20563;-68
2022/01/21 10:55:26;;;;;;;15.07;3.22;;;6.10;99.90;;;;;;5059228;28;20051;-67
2022/01/21 10:58:03;;;;;;;16.27;3.20;;;6.10;99.90;;;;;;5054136;28;20499;-68
2022/01/21 11:00:28;;;;;;;15.68;3.00;;;6.30;99.90;;;;;;5064287;28;20132;-67
2022/01/21 11:02:54;;;;;;;13.32;3.00;;;6.40;99.90;;;;;;5073153;28;20115;-67
2022/01/21 11:05:20;;;;;;;17.38;3.22;;;6.50;99.90;;;;;;5054945;28;20045;-66
2022/01/21 11:07:50;;;;;;;12.88;2.45;;;6.60;99.90;;;;;;5054610;28;20056;-67
2022/01/21 11:10:37;;;;;;;16.98;2.63;;;6.80;99.90;;;;;;5072214;28;20036;-66
2022/01/21 11:13:23;;;;;;;12.38;2.83;;;6.60;99.90;;;;;;5052270;28;20102;-66
2022/01/21 11:16:09;;;;;;;16.13;4.70;;;6.80;99.90;;;;;;5047678;28;20041;-66
2022/01/21 11:18:47;;;;;;;14.38;3.22;;;;;;;;;;5051307;28;20412;-67
2022/01/21 11:21:13;;;;;;;11.65;3.25;;;6.80;99.90;;;;;;5054626;28;20081;-67
2022/01/21 11:23:39;;;;;;;14.90;2.80;;;6.90;99.90;;;;;;5083205;28;20045;-70
2022/01/21 11:26:09;;;;;;;13.43;2.88;;;6.80;99.90;;;;;;5069561;28;20076;-69
2022/01/21 11:28:46;;;;;;;15.75;2.70;;;6.80;99.90;;;;;;5058334;28;20114;-68
2022/01/21 11:31:13;;;;;;;14.25;3.13;;;6.90;99.90;;;;;;5064252;28;20044;-67
2022/01/21 11:33:39;;;;;;;16.10;3.20;;;6.90;99.90;;;;;;5063673;28;20041;-67
2022/01/21 11:36:05;;;;;;;15.73;3.67;;;;;;;;;;5067037;28;20067;-67
2022/01/21 11:38:34;;;;;;;13.00;2.40;;;;;;;;;;5052152;28;20049;-67
2022/01/21 11:41:00;;;;;;;11.70;3.08;;;7.00;99.90;;;;;;5056287;28;20048;-67
2022/01/21 11:43:30;;;;;;;26.63;4.72;;;7.20;99.90;;;;;;5060736;28;20033;-67
2022/01/21 11:50:54;;;;;;;11.27;2.42;;;7.10;99.90;;;;;;5052740;28;20580;-67
2022/01/21 11:54:05;;;;;;;14.20;3.15;;;7.20;99.90;;;;;;5070601;28;20074;-67
2022/01/21 11:56:36;;;;;;;16.77;2.85;;;7.10;99.90;;;;;;5050736;28;20057;-67
2022/01/21 11:59:19;;;;;;;10.25;2.95;;;7.20;99.90;;;;;;5062811;28;20041;-67
2022/01/21 12:01:48;;;;;;;15.75;2.30;;;7.00;99.90;;;;;;5063448;28;20037;-68
2022/01/21 12:04:29;;;;;;;14.02;3.63;;;7.10;99.90;;;;;;5054523;28;20468;-68
2022/01/21 12:06:55;;;;;;;7.45;2.28;;;;;;;;;;5050840;28;20052;-67
2022/01/21 12:10:00;;;;;;;16.00;2.60;;;7.00;99.90;;;;;;5061644;28;20051;-68
2022/01/21 12:12:45;;;;;;;9.63;2.80;;;;;;;;;;5050440;28;20057;-68
2022/01/21 12:15:42;;;;;;;14.47;3.17;;;7.30;99.90;;;;;;5057359;28;20486;-67
2022/01/21 12:18:20;;;;;;;13.32;2.47;;;7.00;99.90;;;;;;5050249;28;20296;-67
2022/01/21 12:20:47;;;;;;;11.68;2.13;;;7.20;99.90;;;;;;5060027;28;20039;-67
2022/01/21 12:23:16;;;;;;;15.70;2.45;;;7.20;99.90;;;;;;5069513;28;20048;-69
2022/01/21 12:26:20;;;;;;;11.18;2.38;;;7.20;99.90;;;;;;5079871;28;20119;-69
2022/01/21 12:28:54;;;;;;;11.10;2.40;;;7.10;99.90;;;;;;5084404;28;20391;-69
2022/01/21 12:31:21;;;;;;;16.33;3.10;;;;;;;;;;5057704;28;20071;-69
2022/01/21 12:34:13;;;;;;;15.82;2.88;;;7.40;99.90;;;;;;5074686;28;20040;-68
2022/01/21 12:36:40;;;;;;;10.20;2.10;;;7.40;99.90;;;;;;5061996;28;20429;-67
2022/01/21 12:39:44;;;;;;;13.75;3.40;;;7.10;99.90;;;;;;5058139;28;20045;-67
2022/01/21 12:42:23;;;;;;;10.68;2.90;;;;;;;;;;5051881;28;20469;-67
2022/01/21 12:44:55;;;;;;;15.45;3.67;;;7.40;99.90;;;;;;5032786;28;20041;-68
2022/01/21 12:47:43;;;;;;;11.23;2.22;;;7.30;99.90;;;;;;5051234;28;20037;-68
2022/01/21 12:50:11;;;;;;;12.05;2.58;;;7.20;99.90;;;;;;5049875;28;20045;-67
2022/01/21 12:58:04;;;;;;;16.52;3.35;;;;;;;;;;5050027;28;20515;-68
2022/01/21 13:00:29;;;;;;;11.75;3.05;;;7.40;99.90;;;;;;5054053;28;20124;-68
2022/01/21 13:03:01;;;;;;;13.43;2.72;;;7.40;99.90;;;;;;5049522;28;20375;-67
2022/01/21 13:05:38;;;;;;;16.13;2.60;;;7.30;99.90;;;;;;5049550;28;20504;-67
2022/01/21 13:08:40;;;;;;;10.90;2.38;;;7.40;99.90;;;;;;5067223;28;20055;-68
2022/01/21 13:11:16;;;;;;;15.02;2.75;;;7.40;99.90;;;;;;5069111;28;20102;-67
2022/01/21 13:13:51;;;;;;;13.00;2.25;;;7.40;99.90;;;;;;5049549;28;20049;-68
2022/01/21 13:16:25;;;;;;;20.02;4.70;;;7.30;99.90;;;;;;5061510;28;20076;-68
2022/01/21 13:18:59;;;;;;;15.45;3.17;;;;;;;;;;5073069;28;20060;-67
2022/01/21 13:21:25;;;;;;;12.88;2.75;;;;;;;;;;5059374;28;20478;-67
2022/01/21 13:23:55;;;;;;;18.83;3.42;;;7.30;99.90;;;;;;5081473;28;20070;-68
2022/01/21 13:26:36;;;;;;;20.95;3.35;;;7.30;99.90;;;;;;5067485;28;20048;-67
2022/01/21 13:29:06;;;;;;;18.73;2.92;;;7.40;99.90;;;;;;5055725;28;20045;-68
2022/01/21 13:31:50;;;;;;;14.50;2.45;;;7.20;99.90;;;;;;5066245;28;20040;-67
2022/01/21 13:34:28;;;;;;;12.52;2.78;;;7.30;99.90;;;;;;5049367;28;20048;-68
2022/01/21 13:37:00;;;;;;;13.85;2.63;;;7.30;99.90;;;;;;5049295;28;20041;-67
2022/01/21 13:39:35;;;;;;;13.23;2.53;;;7.20;99.90;;;;;;5049194;28;20065;-68
2022/01/21 13:42:10;;;;;;;12.93;2.50;;;;;;;;;;5071128;28;20467;-68
2022/01/21 13:44:49;;;;;;;22.83;2.67;;;7.40;99.90;;;;;;5057531;28;20400;-67
2022/01/21 13:47:31;;;;;;;17.30;3.00;;;7.40;99.90;;;;;;5060368;28;20048;-68
2022/01/21 13:50:00;;;;;;;18.98;2.72;;;7.50;99.90;;;;;;5055369;28;20564;-68
2022/01/21 13:52:38;;;;;;;17.42;4.25;;;;;;;;;;5056621;28;20044;-68
2022/01/21 13:55:05;;;;;;;16.35;2.83;;;;;;;;;;5035243;28;20051;-68
2022/01/21 13:57:31;;;;;;;14.15;2.60;;;7.30;99.90;;;;;;5076463;28;20400;-68
2022/01/21 13:59:56;;;;;;;16.45;3.15;;;7.30;99.90;;;;;;5045606;28;20123;-68
2022/01/21 14:02:23;;;;;;;16.27;3.42;;;7.30;99.90;;;;;;5062967;28;20044;-69
2022/01/21 14:04:54;;;;;;;12.40;3.38;;;7.40;99.90;;;;;;5077945;28;20046;-68
2022/01/21 14:07:28;;;;;;;14.70;2.40;;;7.30;99.90;;;;;;5057849;28;20048;-68
2022/01/21 14:09:54;;;;;;;12.95;2.42;;;;;;;;;;5080930;28;20431;-68
2022/01/21 14:12:20;;;;;;;12.70;2.95;;;7.20;99.90;;;;;;5066086;28;20063;-68
2022/01/21 14:14:51;;;;;;;14.38;3.60;;;7.40;99.90;;;;;;5064893;28;20079;-68
2022/01/21 14:17:26;;;;;;;12.77;2.80;;;7.30;99.90;;;;;;5085567;28;20055;-67
2022/01/21 14:20:00;;;;;;;18.80;2.97;;;7.20;99.90;;;;;;5083640;28;20037;-68